New Helena, Nebraska
Current Conditions -  °F | °C
As of 11:53 PM on Tuesday 25 Nov 2014 (Local Time) from KBBW Reporting Station
Clear Clear  
Wind Chill: 28°   Ceiling: Unl
Heat Index: 38°   Visibility: 10mi
Dew Point: 26°   Wind: 20mph
Humidity: 62%   Direction: 320°NW
Pressure: 29.92"   Gusts: NA
Location:  41.6612°N, 99.7844°W
Report Text: KBBW 260553Z AUTO 32017KT 10SM CLR 03/M03 A2992 RMK AO2 SLP144 T00331033 10061 20033 400721078 52018
Loading
Personal Weather Stations






























Interactive Weather Map New forecast layout! Learn more

10-Day Weather Forecast

Advertisements
Track Severe Weather on mobile